sensor_id;sensor_type;location;lat;lon;timestamp;P1;durP1;ratioP1;P2;durP2;ratioP2
62941;SDS011;49042;47.318;19.874;2022-10-18T10:28:40;13.90;;;5.15;;
62941;SDS011;49042;47.318;19.874;2022-10-18T10:32:00;13.50;;;5.45;;
62941;SDS011;49042;47.318;19.874;2022-10-18T10:35:09;21.27;;;5.12;;
62941;SDS011;49042;47.318;19.874;2022-10-18T10:38:41;14.87;;;4.80;;
62941;SDS011;49042;47.318;19.874;2022-10-18T10:41:53;14.30;;;4.62;;
62941;SDS011;49042;47.318;19.874;2022-10-18T10:44:57;7.95;;;4.72;;
62941;SDS011;49042;47.318;19.874;2022-10-18T10:48:06;10.30;;;4.93;;
62941;SDS011;49042;47.318;19.874;2022-10-18T10:51:15;13.40;;;4.62;;
62941;SDS011;49042;47.318;19.874;2022-10-18T10:54:29;10.00;;;4.72;;
62941;SDS011;49042;47.318;19.874;2022-10-18T11:00:42;11.77;;;3.75;;
62941;SDS011;49042;47.318;19.874;2022-10-18T11:03:45;35.25;;;5.40;;
62941;SDS011;49042;47.318;19.874;2022-10-18T11:06:51;6.47;;;4.32;;
62941;SDS011;49042;47.318;19.874;2022-10-18T11:16:20;7.60;;;4.20;;
62941;SDS011;49042;47.318;19.874;2022-10-18T11:26:10;12.15;;;3.72;;
62941;SDS011;49042;47.318;19.874;2022-10-18T11:36:11;11.63;;;4.10;;
62941;SDS011;49042;47.318;19.874;2022-10-18T11:46:40;15.68;;;4.15;;
62941;SDS011;49042;47.318;19.874;2022-10-18T11:53:39;10.60;;;3.45;;
62941;SDS011;49042;47.318;19.874;2022-10-18T12:00:26;10.27;;;3.50;;
62941;SDS011;49042;47.318;19.874;2022-10-18T12:06:55;15.55;;;3.90;;
62941;SDS011;49042;47.318;19.874;2022-10-18T12:09:57;9.13;;;3.78;;
62941;SDS011;49042;47.318;19.874;2022-10-18T12:13:02;15.20;;;3.47;;
62941;SDS011;49042;47.318;19.874;2022-10-18T12:16:07;13.70;;;4.70;;
62941;SDS011;49042;47.318;19.874;2022-10-18T12:19:13;5.28;;;3.50;;
62941;SDS011;49042;47.318;19.874;2022-10-18T12:22:37;10.63;;;3.40;;
62941;SDS011;49042;47.318;19.874;2022-10-18T12:25:48;14.87;;;3.62;;
62941;SDS011;49042;47.318;19.874;2022-10-18T12:32:24;5.82;;;2.97;;
62941;SDS011;49042;47.318;19.874;2022-10-18T12:35:30;8.85;;;3.55;;
62941;SDS011;49042;47.318;19.874;2022-10-18T12:38:41;12.30;;;3.20;;
62941;SDS011;49042;47.318;19.874;2022-10-18T12:41:46;4.75;;;3.10;;
62941;SDS011;49042;47.318;19.874;2022-10-18T12:44:48;12.50;;;4.18;;
62941;SDS011;49042;47.318;19.874;2022-10-18T12:48:04;7.57;;;3.30;;
62941;SDS011;49042;47.318;19.874;2022-10-18T12:54:49;7.50;;;2.78;;
62941;SDS011;49042;47.318;19.874;2022-10-18T12:58:00;9.90;;;2.97;;
62941;SDS011;49042;47.318;19.874;2022-10-18T13:01:04;6.25;;;3.00;;
62941;SDS011;49042;47.318;19.874;2022-10-18T13:04:29;7.07;;;3.20;;
62941;SDS011;49042;47.318;19.874;2022-10-18T13:10:32;5.95;;;3.53;;
62941;SDS011;49042;47.318;19.874;2022-10-18T13:27:37;11.00;;;2.72;;
62941;SDS011;49042;47.318;19.874;2022-10-18T13:31:18;14.40;;;3.20;;
62941;SDS011;49042;47.318;19.874;2022-10-18T13:37:25;20.05;;;2.65;;
62941;SDS011;49042;47.318;19.874;2022-10-18T13:40:29;9.85;;;3.00;;
62941;SDS011;49042;47.318;19.874;2022-10-18T13:43:50;9.90;;;2.60;;
62941;SDS011;49042;47.318;19.874;2022-10-18T13:53:32;10.13;;;3.05;;
62941;SDS011;49042;47.318;19.874;2022-10-18T14:06:58;11.25;;;2.80;;
62941;SDS011;49042;47.318;19.874;2022-10-18T14:10:04;22.63;;;2.80;;
62941;SDS011;49042;47.318;19.874;2022-10-18T14:13:17;7.12;;;2.42;;
62941;SDS011;49042;47.318;19.874;2022-10-18T14:16:37;27.50;;;3.22;;
62941;SDS011;49042;47.318;19.874;2022-10-18T14:19:45;9.43;;;2.30;;
62941;SDS011;49042;47.318;19.874;2022-10-18T14:29:19;14.32;;;2.85;;
62941;SDS011;49042;47.318;19.874;2022-10-18T14:32:25;12.88;;;2.92;;
62941;SDS011;49042;47.318;19.874;2022-10-18T14:35:29;8.95;;;3.10;;
62941;SDS011;49042;47.318;19.874;2022-10-18T14:38:34;12.18;;;3.55;;
62941;SDS011;49042;47.318;19.874;2022-10-18T14:41:46;18.52;;;3.78;;
62941;SDS011;49042;47.318;19.874;2022-10-18T14:44:53;25.45;;;3.72;;
62941;SDS011;49042;47.318;19.874;2022-10-18T14:48:06;24.92;;;3.28;;
62941;SDS011;49042;47.318;19.874;2022-10-18T14:51:15;11.10;;;2.83;;
62941;SDS011;49042;47.318;19.874;2022-10-18T14:54:22;14.23;;;2.90;;
62941;SDS011;49042;47.318;19.874;2022-10-18T14:57:33;14.05;;;3.12;;
62941;SDS011;49042;47.318;19.874;2022-10-18T15:00:37;11.10;;;3.10;;
62941;SDS011;49042;47.318;19.874;2022-10-18T15:03:44;11.23;;;3.23;;
62941;SDS011;49042;47.318;19.874;2022-10-18T15:06:47;16.70;;;2.95;;
62941;SDS011;49042;47.318;19.874;2022-10-18T15:09:49;13.73;;;3.35;;
62941;SDS011;49042;47.318;19.874;2022-10-18T15:12:51;18.73;;;3.25;;
62941;SDS011;49042;47.318;19.874;2022-10-18T15:16:15;9.57;;;2.97;;
62941;SDS011;49042;47.318;19.874;2022-10-18T15:19:35;19.27;;;3.05;;
62941;SDS011;49042;47.318;19.874;2022-10-18T15:22:39;13.57;;;3.72;;
62941;SDS011;49042;47.318;19.874;2022-10-18T15:25:41;11.18;;;4.05;;
62941;SDS011;49042;47.318;19.874;2022-10-18T15:28:44;7.22;;;4.20;;
62941;SDS011;49042;47.318;19.874;2022-10-18T15:31:54;13.20;;;4.18;;
62941;SDS011;49042;47.318;19.874;2022-10-18T15:35:06;7.43;;;4.12;;
62941;SDS011;49042;47.318;19.874;2022-10-18T15:38:15;7.60;;;4.30;;
62941;SDS011;49042;47.318;19.874;2022-10-18T15:44:46;42.60;;;5.50;;
62941;SDS011;49042;47.318;19.874;2022-10-18T15:51:00;21.67;;;4.53;;
62941;SDS011;49042;47.318;19.874;2022-10-18T15:54:07;8.85;;;3.67;;
62941;SDS011;49042;47.318;19.874;2022-10-18T15:57:20;12.77;;;4.30;;
62941;SDS011;49042;47.318;19.874;2022-10-18T16:00:23;21.85;;;4.72;;
62941;SDS011;49042;47.318;19.874;2022-10-18T16:03:25;9.90;;;4.40;;
62941;SDS011;49042;47.318;19.874;2022-10-18T16:06:27;14.43;;;4.07;;
62941;SDS011;49042;47.318;19.874;2022-10-18T16:09:29;9.63;;;4.00;;
62941;SDS011;49042;47.318;19.874;2022-10-18T16:12:31;13.27;;;4.35;;
62941;SDS011;49042;47.318;19.874;2022-10-18T16:15:32;8.95;;;4.87;;
62941;SDS011;49042;47.318;19.874;2022-10-18T16:18:34;10.68;;;5.00;;
62941;SDS011;49042;47.318;19.874;2022-10-18T16:21:36;17.60;;;5.30;;
62941;SDS011;49042;47.318;19.874;2022-10-18T16:24:38;16.02;;;5.37;;
62941;SDS011;49042;47.318;19.874;2022-10-18T16:27:41;11.32;;;4.60;;
62941;SDS011;49042;47.318;19.874;2022-10-18T16:30:44;12.82;;;4.40;;
62941;SDS011;49042;47.318;19.874;2022-10-18T16:33:52;12.30;;;4.78;;
62941;SDS011;49042;47.318;19.874;2022-10-18T16:36:55;13.20;;;4.45;;
62941;SDS011;49042;47.318;19.874;2022-10-18T16:39:57;20.48;;;5.40;;
62941;SDS011;49042;47.318;19.874;2022-10-18T16:42:58;12.95;;;4.20;;
62941;SDS011;49042;47.318;19.874;2022-10-18T16:46:00;9.95;;;3.90;;
62941;SDS011;49042;47.318;19.874;2022-10-18T16:49:03;9.13;;;3.67;;
62941;SDS011;49042;47.318;19.874;2022-10-18T16:52:05;15.85;;;3.87;;
62941;SDS011;49042;47.318;19.874;2022-10-18T16:55:07;7.32;;;3.10;;
62941;SDS011;49042;47.318;19.874;2022-10-18T16:58:16;5.00;;;3.15;;
62941;SDS011;49042;47.318;19.874;2022-10-18T17:01:19;15.05;;;3.40;;
62941;SDS011;49042;47.318;19.874;2022-10-18T17:04:22;11.65;;;3.50;;
62941;SDS011;49042;47.318;19.874;2022-10-18T17:07:25;7.43;;;3.55;;
62941;SDS011;49042;47.318;19.874;2022-10-18T17:10:28;6.55;;;3.53;;
62941;SDS011;49042;47.318;19.874;2022-10-18T17:13:30;9.60;;;3.65;;
62941;SDS011;49042;47.318;19.874;2022-10-18T17:16:32;8.27;;;3.37;;
62941;SDS011;49042;47.318;19.874;2022-10-18T17:19:37;11.07;;;3.60;;
62941;SDS011;49042;47.318;19.874;2022-10-18T17:22:38;7.93;;;3.83;;
62941;SDS011;49042;47.318;19.874;2022-10-18T17:25:40;9.50;;;3.28;;
62941;SDS011;49042;47.318;19.874;2022-10-18T17:29:07;8.20;;;3.95;;
62941;SDS011;49042;47.318;19.874;2022-10-18T17:32:10;7.78;;;3.60;;
62941;SDS011;49042;47.318;19.874;2022-10-18T17:35:13;6.70;;;4.00;;
62941;SDS011;49042;47.318;19.874;2022-10-18T17:38:15;6.93;;;3.67;;
62941;SDS011;49042;47.318;19.874;2022-10-18T17:41:17;8.82;;;4.40;;
62941;SDS011;49042;47.318;19.874;2022-10-18T17:44:20;10.27;;;4.18;;
62941;SDS011;49042;47.318;19.874;2022-10-18T17:47:27;11.80;;;4.37;;
62941;SDS011;49042;47.318;19.874;2022-10-18T17:50:30;10.88;;;5.82;;
62941;SDS011;49042;47.318;19.874;2022-10-18T17:53:32;11.77;;;5.75;;
62941;SDS011;49042;47.318;19.874;2022-10-18T17:56:40;13.07;;;5.47;;
62941;SDS011;49042;47.318;19.874;2022-10-18T17:59:43;19.65;;;6.35;;
62941;SDS011;49042;47.318;19.874;2022-10-18T18:02:48;21.15;;;5.47;;
62941;SDS011;49042;47.318;19.874;2022-10-18T18:05:51;14.05;;;6.00;;
62941;SDS011;49042;47.318;19.874;2022-10-18T18:08:53;12.75;;;6.60;;
62941;SDS011;49042;47.318;19.874;2022-10-18T18:11:55;11.63;;;6.62;;
62941;SDS011;49042;47.318;19.874;2022-10-18T18:14:58;14.50;;;7.00;;
62941;SDS011;49042;47.318;19.874;2022-10-18T18:18:01;20.45;;;7.07;;
62941;SDS011;49042;47.318;19.874;2022-10-18T18:21:03;12.98;;;6.90;;
62941;SDS011;49042;47.318;19.874;2022-10-18T18:24:06;11.48;;;7.57;;
62941;SDS011;49042;47.318;19.874;2022-10-18T18:27:11;14.10;;;7.20;;
62941;SDS011;49042;47.318;19.874;2022-10-18T18:30:13;11.27;;;7.65;;
62941;SDS011;49042;47.318;19.874;2022-10-18T18:33:21;11.82;;;7.18;;
62941;SDS011;49042;47.318;19.874;2022-10-18T18:36:24;11.90;;;6.40;;
62941;SDS011;49042;47.318;19.874;2022-10-18T18:39:30;9.48;;;6.60;;
62941;SDS011;49042;47.318;19.874;2022-10-18T18:42:36;11.27;;;7.15;;
62941;SDS011;49042;47.318;19.874;2022-10-18T18:45:38;15.30;;;8.25;;
62941;SDS011;49042;47.318;19.874;2022-10-18T18:48:40;16.48;;;7.80;;
62941;SDS011;49042;47.318;19.874;2022-10-18T18:51:43;15.52;;;9.18;;
62941;SDS011;49042;47.318;19.874;2022-10-18T18:54:46;15.95;;;8.57;;
62941;SDS011;49042;47.318;19.874;2022-10-18T18:57:48;17.58;;;8.10;;
62941;SDS011;49042;47.318;19.874;2022-10-18T19:00:50;26.27;;;13.13;;
62941;SDS011;49042;47.318;19.874;2022-10-18T19:03:54;32.58;;;13.48;;
62941;SDS011;49042;47.318;19.874;2022-10-18T19:06:56;31.67;;;14.10;;
62941;SDS011;49042;47.318;19.874;2022-10-18T19:09:59;26.62;;;13.00;;
62941;SDS011;49042;47.318;19.874;2022-10-18T19:13:01;28.12;;;9.95;;
62941;SDS011;49042;47.318;19.874;2022-10-18T19:19:24;27.35;;;9.57;;
62941;SDS011;49042;47.318;19.874;2022-10-18T19:22:27;15.30;;;8.73;;
62941;SDS011;49042;47.318;19.874;2022-10-18T19:25:30;15.48;;;8.20;;
62941;SDS011;49042;47.318;19.874;2022-10-18T19:28:32;17.58;;;8.38;;
62941;SDS011;49042;47.318;19.874;2022-10-18T19:31:35;17.35;;;8.38;;
62941;SDS011;49042;47.318;19.874;2022-10-18T19:34:39;18.35;;;9.38;;
62941;SDS011;49042;47.318;19.874;2022-10-18T19:37:42;16.60;;;8.82;;
62941;SDS011;49042;47.318;19.874;2022-10-18T19:40:44;16.48;;;9.75;;
62941;SDS011;49042;47.318;19.874;2022-10-18T19:43:52;21.73;;;10.63;;
62941;SDS011;49042;47.318;19.874;2022-10-18T19:46:54;22.13;;;10.93;;
62941;SDS011;49042;47.318;19.874;2022-10-18T19:50:00;22.13;;;11.25;;
62941;SDS011;49042;47.318;19.874;2022-10-18T19:53:02;25.27;;;12.10;;
62941;SDS011;49042;47.318;19.874;2022-10-18T19:56:05;22.70;;;13.00;;
62941;SDS011;49042;47.318;19.874;2022-10-18T19:59:09;19.27;;;11.65;;
62941;SDS011;49042;47.318;19.874;2022-10-18T20:02:12;24.23;;;14.00;;
62941;SDS011;49042;47.318;19.874;2022-10-18T20:05:15;26.60;;;14.35;;
62941;SDS011;49042;47.318;19.874;2022-10-18T20:08:17;34.00;;;16.15;;
62941;SDS011;49042;47.318;19.874;2022-10-18T20:11:21;26.02;;;16.05;;
62941;SDS011;49042;47.318;19.874;2022-10-18T20:14:24;28.30;;;16.75;;
62941;SDS011;49042;47.318;19.874;2022-10-18T20:17:26;25.27;;;15.57;;
62941;SDS011;49042;47.318;19.874;2022-10-18T20:20:28;27.85;;;15.10;;
62941;SDS011;49042;47.318;19.874;2022-10-18T20:23:30;25.30;;;14.73;;
62941;SDS011;49042;47.318;19.874;2022-10-18T20:26:33;29.85;;;14.02;;
62941;SDS011;49042;47.318;19.874;2022-10-18T20:29:36;22.13;;;14.10;;
62941;SDS011;49042;47.318;19.874;2022-10-18T20:32:37;31.17;;;14.25;;
62941;SDS011;49042;47.318;19.874;2022-10-18T20:35:39;21.75;;;13.80;;
62941;SDS011;49042;47.318;19.874;2022-10-18T20:38:42;28.17;;;14.30;;
62941;SDS011;49042;47.318;19.874;2022-10-18T20:41:45;23.08;;;14.87;;
62941;SDS011;49042;47.318;19.874;2022-10-18T20:44:47;30.88;;;14.77;;
62941;SDS011;49042;47.318;19.874;2022-10-18T20:47:48;25.15;;;14.75;;
62941;SDS011;49042;47.318;19.874;2022-10-18T20:50:50;25.70;;;14.87;;
62941;SDS011;49042;47.318;19.874;2022-10-18T20:53:52;37.03;;;15.35;;
62941;SDS011;49042;47.318;19.874;2022-10-18T20:56:54;31.15;;;17.12;;
62941;SDS011;49042;47.318;19.874;2022-10-18T20:59:56;30.17;;;16.83;;
62941;SDS011;49042;47.318;19.874;2022-10-18T21:02:58;30.30;;;17.00;;
62941;SDS011;49042;47.318;19.874;2022-10-18T21:06:00;29.48;;;16.58;;
62941;SDS011;49042;47.318;19.874;2022-10-18T21:09:03;26.65;;;15.20;;
62941;SDS011;49042;47.318;19.874;2022-10-18T21:12:10;32.58;;;15.32;;
62941;SDS011;49042;47.318;19.874;2022-10-18T21:15:12;24.92;;;13.18;;
62941;SDS011;49042;47.318;19.874;2022-10-18T21:18:14;25.42;;;12.70;;
62941;SDS011;49042;47.318;19.874;2022-10-18T21:21:20;22.58;;;11.73;;
62941;SDS011;49042;47.318;19.874;2022-10-18T21:24:24;27.37;;;13.93;;
62941;SDS011;49042;47.318;19.874;2022-10-18T21:27:26;28.70;;;14.15;;
62941;SDS011;49042;47.318;19.874;2022-10-18T21:30:28;23.27;;;11.90;;
62941;SDS011;49042;47.318;19.874;2022-10-18T21:33:29;19.00;;;10.32;;
62941;SDS011;49042;47.318;19.874;2022-10-18T21:36:32;17.00;;;8.27;;
62941;SDS011;49042;47.318;19.874;2022-10-18T21:39:35;24.05;;;9.43;;
62941;SDS011;49042;47.318;19.874;2022-10-18T21:42:37;16.70;;;9.38;;
62941;SDS011;49042;47.318;19.874;2022-10-18T21:45:39;17.95;;;9.80;;
62941;SDS011;49042;47.318;19.874;2022-10-18T21:48:41;19.80;;;9.25;;
62941;SDS011;49042;47.318;19.874;2022-10-18T21:51:47;16.40;;;9.63;;
62941;SDS011;49042;47.318;19.874;2022-10-18T21:54:49;23.52;;;10.48;;
62941;SDS011;49042;47.318;19.874;2022-10-18T21:57:51;20.77;;;11.32;;
62941;SDS011;49042;47.318;19.874;2022-10-18T22:00:53;29.20;;;11.48;;
62941;SDS011;49042;47.318;19.874;2022-10-18T22:03:55;22.08;;;12.45;;
62941;SDS011;49042;47.318;19.874;2022-10-18T22:06:57;28.58;;;12.23;;
62941;SDS011;49042;47.318;19.874;2022-10-18T22:09:59;21.58;;;12.57;;
62941;SDS011;49042;47.318;19.874;2022-10-18T22:13:01;23.45;;;14.38;;
62941;SDS011;49042;47.318;19.874;2022-10-18T22:16:03;30.45;;;14.15;;
62941;SDS011;49042;47.318;19.874;2022-10-18T22:19:06;29.48;;;14.63;;
62941;SDS011;49042;47.318;19.874;2022-10-18T22:22:08;25.27;;;14.25;;
62941;SDS011;49042;47.318;19.874;2022-10-18T22:25:10;27.98;;;15.45;;
62941;SDS011;49042;47.318;19.874;2022-10-18T22:28:12;38.10;;;16.85;;
62941;SDS011;49042;47.318;19.874;2022-10-18T22:31:18;36.53;;;16.08;;
62941;SDS011;49042;47.318;19.874;2022-10-18T22:34:22;27.35;;;15.30;;
62941;SDS011;49042;47.318;19.874;2022-10-18T22:37:29;35.10;;;17.45;;
62941;SDS011;49042;47.318;19.874;2022-10-18T22:40:31;27.10;;;15.80;;
62941;SDS011;49042;47.318;19.874;2022-10-18T22:43:32;31.45;;;16.55;;
62941;SDS011;49042;47.318;19.874;2022-10-18T22:46:35;26.40;;;15.95;;
62941;SDS011;49042;47.318;19.874;2022-10-18T22:49:36;30.35;;;15.82;;
62941;SDS011;49042;47.318;19.874;2022-10-18T22:52:38;26.70;;;15.85;;
62941;SDS011;49042;47.318;19.874;2022-10-18T22:55:40;33.28;;;15.80;;
62941;SDS011;49042;47.318;19.874;2022-10-18T22:58:42;34.63;;;17.05;;
62941;SDS011;49042;47.318;19.874;2022-10-18T23:01:44;32.45;;;16.37;;
62941;SDS011;49042;47.318;19.874;2022-10-18T23:04:46;31.75;;;16.52;;
62941;SDS011;49042;47.318;19.874;2022-10-18T23:07:47;29.10;;;16.25;;
62941;SDS011;49042;47.318;19.874;2022-10-18T23:10:53;29.58;;;16.70;;
62941;SDS011;49042;47.318;19.874;2022-10-18T23:13:57;30.75;;;16.35;;
62941;SDS011;49042;47.318;19.874;2022-10-18T23:16:58;33.33;;;16.02;;
62941;SDS011;49042;47.318;19.874;2022-10-18T23:20:00;29.33;;;17.42;;
62941;SDS011;49042;47.318;19.874;2022-10-18T23:23:02;28.80;;;17.67;;
62941;SDS011;49042;47.318;19.874;2022-10-18T23:26:05;30.40;;;16.92;;
62941;SDS011;49042;47.318;19.874;2022-10-18T23:29:08;29.20;;;17.02;;
62941;SDS011;49042;47.318;19.874;2022-10-18T23:32:10;25.77;;;16.60;;
62941;SDS011;49042;47.318;19.874;2022-10-18T23:35:12;37.00;;;16.35;;
62941;SDS011;49042;47.318;19.874;2022-10-18T23:38:13;26.87;;;15.13;;
62941;SDS011;49042;47.318;19.874;2022-10-18T23:41:16;27.25;;;14.82;;
62941;SDS011;49042;47.318;19.874;2022-10-18T23:44:18;29.98;;;15.38;;
62941;SDS011;49042;47.318;19.874;2022-10-18T23:47:20;22.02;;;14.52;;
62941;SDS011;49042;47.318;19.874;2022-10-18T23:50:21;29.08;;;14.57;;
62941;SDS011;49042;47.318;19.874;2022-10-18T23:53:23;22.20;;;14.15;;
62941;SDS011;49042;47.318;19.874;2022-10-18T23:56:25;23.12;;;14.10;;
62941;SDS011;49042;47.318;19.874;2022-10-18T23:59:26;27.08;;;14.98;;
